Time;durP1;ratioP1;P1;durP2;ratioP2;P2;SDS_P1;SDS_P2;PMS_P1;PMS_P2;Temp;Humidity;BMP_temperature;BMP_pressure;BME280_temperature;BME280_humidity;BME280_pressure;Samples;Min_cycle;Max_cycle;Signal;HPM_P1;HPM_P2
2020/12/10 00:00:31;;;;;;;16.33;4.30;;;5.70;93.70;;;;;;5033181;28;20469;-76
2020/12/10 00:02:58;;;;;;;13.13;4.57;;;5.70;93.70;;;;;;5033885;28;20028;-75
2020/12/10 00:05:24;;;;;;;15.77;4.18;;;5.60;93.70;;;;;;5033728;28;20041;-75
2020/12/10 00:07:49;;;;;;;16.25;4.20;;;5.50;93.80;;;;;;5033205;28;20029;-76
2020/12/10 00:10:15;;;;;;;16.17;4.93;;;5.50;93.80;;;;;;5033576;28;20041;-75
2020/12/10 00:12:44;;;;;;;10.75;3.70;;;5.40;93.90;;;;;;5033402;28;20040;-76
2020/12/10 00:15:11;;;;;;;11.98;3.85;;;5.30;94.00;;;;;;5032300;28;20121;-75
2020/12/10 00:17:37;;;;;;;10.40;4.07;;;5.20;94.00;;;;;;5033029;28;20026;-75
2020/12/10 00:20:05;;;;;;;11.20;3.75;;;5.20;94.10;;;;;;5032004;28;20124;-75
2020/12/10 00:22:33;;;;;;;12.07;4.18;;;5.10;94.10;;;;;;5031592;28;20378;-75
2020/12/10 00:24:58;;;;;;;12.02;3.60;;;5.10;94.20;;;;;;5033321;28;20476;-75
2020/12/10 00:27:25;;;;;;;14.15;4.43;;;5.10;94.20;;;;;;5031907;28;20021;-75
2020/12/10 00:29:51;;;;;;;15.43;4.00;;;5.00;94.20;;;;;;5031427;28;20461;-75
2020/12/10 00:32:17;;;;;;;12.07;3.50;;;5.00;94.20;;;;;;5033241;28;20025;-75
2020/12/10 00:34:44;;;;;;;16.50;4.82;;;4.90;94.30;;;;;;5032614;28;20033;-75
2020/12/10 00:37:10;;;;;;;13.32;4.32;;;4.90;94.30;;;;;;5033339;28;20040;-75
2020/12/10 00:39:37;;;;;;;11.98;3.88;;;4.90;94.30;;;;;;5032581;28;20025;-75
2020/12/10 00:42:04;;;;;;;14.90;4.90;;;4.90;94.30;;;;;;5033233;28;20461;-75
2020/12/10 00:44:30;;;;;;;15.88;4.30;;;4.90;94.30;;;;;;5033066;28;20531;-75
2020/12/10 00:46:56;;;;;;;12.20;3.78;;;4.90;94.30;;;;;;5032938;28;20021;-75
2020/12/10 00:49:22;;;;;;;11.90;4.13;;;4.90;94.30;;;;;;5032978;28;20101;-75
2020/12/10 00:51:48;;;;;;;12.57;3.88;;;4.90;94.30;;;;;;5031017;28;20026;-75
2020/12/10 00:54:14;;;;;;;13.02;3.75;;;4.80;94.20;;;;;;5032800;28;20469;-75
2020/12/10 00:56:40;;;;;;;10.02;3.72;;;4.80;94.20;;;;;;5030936;28;20022;-75
2020/12/10 00:59:06;;;;;;;13.65;4.32;;;4.80;94.20;;;;;;5032565;28;20055;-75
2020/12/10 01:01:31;;;;;;;12.68;4.38;;;4.80;94.20;;;;;;5031245;28;20025;-86
2020/12/10 01:03:57;;;;;;;12.30;3.42;;;4.70;94.30;;;;;;5032852;28;20364;-75
2020/12/10 01:06:23;;;;;;;10.90;3.53;;;4.70;94.30;;;;;;5030867;28;20045;-75
2020/12/10 01:08:48;;;;;;;15.90;4.53;;;4.70;94.30;;;;;;5030909;28;20466;-75
2020/12/10 01:11:15;;;;;;;13.30;4.32;;;4.60;94.30;;;;;;5032589;28;20322;-75
2020/12/10 01:13:41;;;;;;;17.08;4.00;;;4.70;94.40;;;;;;5032180;28;20022;-75
2020/12/10 01:16:07;;;;;;;12.23;3.92;;;4.70;94.40;;;;;;5032290;28;20032;-75
2020/12/10 01:18:33;;;;;;;14.25;4.25;;;4.70;94.30;;;;;;5032168;28;20025;-86
2020/12/10 01:20:58;;;;;;;14.88;4.88;;;4.70;94.30;;;;;;5032206;28;20029;-75
2020/12/10 01:23:24;;;;;;;11.98;4.22;;;4.70;94.30;;;;;;5032182;28;20022;-75
2020/12/10 01:25:49;;;;;;;15.23;4.55;;;4.70;94.30;;;;;;5032303;28;20033;-75
2020/12/10 01:28:15;;;;;;;12.60;4.15;;;4.60;94.20;;;;;;5031235;28;20033;-75
2020/12/10 01:30:41;;;;;;;16.33;5.07;;;4.60;94.30;;;;;;5031921;28;20458;-75
2020/12/10 01:33:06;;;;;;;11.32;4.47;;;4.60;94.30;;;;;;5032639;28;20099;-75
2020/12/10 01:35:32;;;;;;;12.32;3.88;;;4.60;94.30;;;;;;5032296;28;20025;-75
2020/12/10 01:37:57;;;;;;;10.02;4.32;;;4.60;94.30;;;;;;5030517;28;20030;-75
2020/12/10 01:40:23;;;;;;;13.70;4.60;;;4.50;94.30;;;;;;5032177;28;20307;-75
2020/12/10 01:42:49;;;;;;;14.57;4.63;;;4.60;94.30;;;;;;5031544;28;20025;-75
2020/12/10 01:45:14;;;;;;;13.40;4.40;;;4.50;94.30;;;;;;5032514;28;20055;-75
2020/12/10 01:47:42;;;;;;;16.63;4.43;;;4.50;94.30;;;;;;5031742;28;20092;-75
2020/12/10 01:50:08;;;;;;;16.48;4.93;;;4.50;94.30;;;;;;5031833;28;20029;-75
2020/12/10 01:52:34;;;;;;;12.45;4.68;;;4.50;94.30;;;;;;5031890;28;20028;-75
2020/12/10 01:55:01;;;;;;;15.30;4.88;;;4.50;94.20;;;;;;5030625;28;20021;-75
2020/12/10 01:57:28;;;;;;;12.80;4.28;;;4.50;94.20;;;;;;5030731;28;20024;-74
2020/12/10 01:59:54;;;;;;;15.18;5.18;;;4.40;94.20;;;;;;5031459;28;20021;-75
2020/12/10 02:02:20;;;;;;;16.17;5.75;;;4.40;94.20;;;;;;5031766;28;20084;-74
2020/12/10 02:04:46;;;;;;;14.05;4.93;;;4.40;94.20;;;;;;5031258;28;20409;-75
2020/12/10 02:07:11;;;;;;;14.40;4.18;;;4.30;94.30;;;;;;5032534;28;20031;-75
2020/12/10 02:09:37;;;;;;;13.57;4.95;;;4.30;94.20;;;;;;5035376;28;20018;-76
2020/12/10 02:12:03;;;;;;;15.48;4.82;;;4.30;94.20;;;;;;5035809;28;20393;-75
2020/12/10 02:14:36;;;;;;;17.10;5.20;;;4.20;94.20;;;;;;5035579;28;20026;-75
2020/12/10 02:17:04;;;;;;;15.55;4.68;;;4.20;94.20;;;;;;5034371;28;20018;-75
2020/12/10 02:19:30;;;;;;;15.50;5.85;;;4.20;94.30;;;;;;5035508;28;20064;-75
2020/12/10 02:21:55;;;;;;;13.50;5.00;;;4.10;94.20;;;;;;5035200;28;20320;-76
2020/12/10 02:24:22;;;;;;;16.70;5.15;;;4.10;94.30;;;;;;5035632;28;20488;-75
2020/12/10 02:26:48;;;;;;;14.95;4.90;;;4.10;94.30;;;;;;5034944;28;20100;-75
2020/12/10 02:29:16;;;;;;;18.15;5.65;;;4.00;94.30;;;;;;5035521;28;20457;-75
2020/12/10 02:31:42;;;;;;;17.80;4.82;;;4.00;94.30;;;;;;5035192;28;20028;-75
2020/12/10 02:34:08;;;;;;;19.27;5.28;;;4.00;94.30;;;;;;5034279;28;20377;-75
2020/12/10 02:36:35;;;;;;;13.32;4.80;;;4.00;94.30;;;;;;5035466;28;20575;-75
2020/12/10 02:39:02;;;;;;;14.18;5.13;;;3.90;94.30;;;;;;5033624;28;20030;-75
2020/12/10 02:41:28;;;;;;;15.60;5.13;;;3.90;94.30;;;;;;5035344;28;20017;-75
2020/12/10 02:43:54;;;;;;;25.23;6.20;;;3.90;94.20;;;;;;5034914;28;20033;-75
2020/12/10 02:46:20;;;;;;;24.42;6.13;;;3.80;94.20;;;;;;5034993;28;20026;-75
2020/12/10 02:48:46;;;;;;;13.35;3.53;;;3.80;94.20;;;;;;5033427;28;20025;-76
2020/12/10 02:51:12;;;;;;;14.02;4.22;;;3.80;94.20;;;;;;5035130;28;20026;-76
2020/12/10 02:53:40;;;;;;;15.90;4.90;;;3.80;94.20;;;;;;5034871;28;20021;-86
2020/12/10 02:56:14;;;;;;;15.88;4.70;;;3.80;94.20;;;;;;5033692;28;20465;-75
2020/12/10 02:58:40;;;;;;;16.33;4.22;;;3.80;94.20;;;;;;5034602;28;20034;-77
2020/12/10 03:01:09;;;;;;;13.63;4.82;;;3.70;94.20;;;;;;5034845;28;20029;-75
2020/12/10 03:03:36;;;;;;;13.32;4.47;;;3.70;94.20;;;;;;5033541;28;20125;-75
2020/12/10 03:06:08;;;;;;;19.65;5.03;;;3.70;94.20;;;;;;5034417;28;20057;-75
2020/12/10 03:08:39;;;;;;;14.20;4.32;;;3.70;94.20;;;;;;5033059;28;20025;-75
2020/12/10 03:11:06;;;;;;;16.25;5.45;;;3.70;94.20;;;;;;5033225;28;20025;-75
2020/12/10 03:13:32;;;;;;;18.13;5.68;;;3.60;94.20;;;;;;5017162;28;20030;-76
2020/12/10 03:15:58;;;;;;;20.33;5.07;;;3.60;94.20;;;;;;5034372;28;20496;-75
2020/12/10 03:18:25;;;;;;;19.58;5.22;;;3.60;94.20;;;;;;5034601;28;20060;-75
2020/12/10 03:20:51;;;;;;;14.63;4.78;;;3.60;94.20;;;;;;5033965;28;20025;-75
2020/12/10 03:23:17;;;;;;;16.20;4.65;;;3.60;94.20;;;;;;5034529;28;20025;-75
2020/12/10 03:25:43;;;;;;;14.68;3.80;;;3.60;94.20;;;;;;5032702;28;20159;-75
2020/12/10 03:28:09;;;;;;;14.85;5.57;;;3.60;94.20;;;;;;5034435;28;20029;-74
2020/12/10 03:30:34;;;;;;;15.13;4.40;;;3.50;94.20;;;;;;5034109;28;20029;-74
2020/12/10 03:33:00;;;;;;;12.05;4.72;;;3.50;94.30;;;;;;5032581;28;20065;-74
2020/12/10 03:35:26;;;;;;;19.73;5.05;;;3.50;94.20;;;;;;5034048;28;20018;-74
2020/12/10 03:37:51;;;;;;;9.52;3.50;;;3.50;94.20;;;;;;5032573;28;20025;-75
2020/12/10 03:40:17;;;;;;;15.65;4.55;;;3.50;94.20;;;;;;5034360;28;20108;-74
2020/12/10 03:42:43;;;;;;;13.35;4.57;;;3.40;94.20;;;;;;5033824;28;20034;-75
2020/12/10 03:45:08;;;;;;;16.77;5.03;;;3.40;94.20;;;;;;5032914;28;20450;-74
2020/12/10 03:47:34;;;;;;;17.75;4.25;;;3.40;94.20;;;;;;5034028;28;20385;-73
2020/12/10 03:50:00;;;;;;;11.02;4.35;;;3.40;94.20;;;;;;5033424;28;20022;-74
2020/12/10 03:52:25;;;;;;;15.75;4.38;;;3.40;94.20;;;;;;5034082;28;20030;-74
2020/12/10 03:54:51;;;;;;;19.98;4.63;;;3.40;94.30;;;;;;5033773;28;20479;-74
2020/12/10 03:57:17;;;;;;;6.85;3.67;;;3.40;94.30;;;;;;5034268;28;20086;-74
2020/12/10 03:59:43;;;;;;;14.27;4.30;;;3.30;94.20;;;;;;5033427;28;20026;-75
2020/12/10 04:02:08;;;;;;;17.20;4.97;;;3.30;94.20;;;;;;5032400;28;20044;-74
2020/12/10 04:04:34;;;;;;;14.52;5.60;;;3.30;94.30;;;;;;5033963;28;20105;-74
2020/12/10 04:07:00;;;;;;;12.73;3.97;;;3.30;94.20;;;;;;5031544;28;20045;-74
2020/12/10 04:09:25;;;;;;;16.63;4.95;;;3.30;94.20;;;;;;5032147;28;20031;-74
2020/12/10 04:11:51;;;;;;;18.23;4.80;;;3.30;94.20;;;;;;5033069;28;20029;-74
2020/12/10 04:14:17;;;;;;;12.05;4.75;;;3.30;94.20;;;;;;5033497;28;20024;-74
2020/12/10 04:16:43;;;;;;;10.00;3.17;;;3.30;94.20;;;;;;5032324;28;20377;-73
2020/12/10 04:19:08;;;;;;;13.00;4.43;;;3.30;94.20;;;;;;5032211;28;20064;-74
2020/12/10 04:21:34;;;;;;;12.20;4.10;;;3.30;94.20;;;;;;5033352;28;20025;-74
2020/12/10 04:24:00;;;;;;;17.13;5.07;;;3.40;94.20;;;;;;5032986;28;20029;-76
2020/12/10 04:26:25;;;;;;;13.75;4.20;;;3.40;94.20;;;;;;5032060;28;20026;-74
2020/12/10 04:28:51;;;;;;;14.27;4.53;;;3.40;94.20;;;;;;5032500;28;20091;-74
2020/12/10 04:31:18;;;;;;;16.20;4.38;;;3.40;94.10;;;;;;5032826;28;20423;-74
2020/12/10 04:33:44;;;;;;;15.00;4.53;;;3.40;94.10;;;;;;5031937;28;20116;-74
2020/12/10 04:36:09;;;;;;;17.90;5.72;;;3.40;94.10;;;;;;5031720;28;20395;-74
2020/12/10 04:38:35;;;;;;;15.90;4.57;;;3.40;94.10;;;;;;5032894;28;20021;-74
2020/12/10 04:41:04;;;;;;;21.13;5.43;;;3.40;94.10;;;;;;5031278;28;20103;-74
2020/12/10 04:43:29;;;;;;;18.42;5.07;;;3.40;94.20;;;;;;5031743;28;20022;-74
2020/12/10 04:46:03;;;;;;;17.05;4.97;;;3.30;94.10;;;;;;5032184;28;20075;-74
2020/12/10 04:48:34;;;;;;;15.95;5.35;;;3.30;94.10;;;;;;5031694;28;20022;-74
2020/12/10 04:51:06;;;;;;;17.38;5.35;;;3.30;94.20;;;;;;5031050;28;20101;-74
2020/12/10 04:53:33;;;;;;;19.90;5.68;;;3.30;94.20;;;;;;5031638;28;20461;-74
2020/12/10 04:56:05;;;;;;;18.10;5.57;;;3.20;94.20;;;;;;5032359;28;20100;-74
2020/12/10 04:58:32;;;;;;;14.52;4.60;;;3.30;94.20;;;;;;5032810;28;20021;-74
2020/12/10 05:01:02;;;;;;;17.45;5.13;;;3.20;94.20;;;;;;5032128;28;20034;-74
2020/12/10 05:03:28;;;;;;;26.75;7.60;;;3.20;94.20;;;;;;5032726;28;20025;-74
2020/12/10 05:06:07;;;;;;;15.27;5.18;;;3.20;94.20;;;;;;5031984;28;20076;-74
2020/12/10 05:08:33;;;;;;;13.60;5.78;;;3.20;94.20;;;;;;5032640;28;20155;-74
2020/12/10 05:10:59;;;;;;;13.25;4.82;;;3.20;94.30;;;;;;5031852;28;20500;-75
2020/12/10 05:13:26;;;;;;;17.02;5.82;;;3.10;94.20;;;;;;5032531;28;20047;-74
2020/12/10 05:15:51;;;;;;;17.33;5.40;;;3.10;94.20;;;;;;5032097;28;20438;-74
2020/12/10 05:18:18;;;;;;;14.98;5.38;;;3.10;94.20;;;;;;5032439;28;20022;-74
2020/12/10 05:20:56;;;;;;;22.35;5.82;;;3.10;94.30;;;;;;5032385;28;20072;-74
2020/12/10 05:23:27;;;;;;;15.82;5.10;;;3.10;94.20;;;;;;5031131;28;20124;-74
2020/12/10 05:25:55;;;;;;;14.77;5.30;;;3.10;94.20;;;;;;5030691;28;20036;-74
2020/12/10 05:28:48;;;;;;;14.15;5.25;;;3.00;94.20;;;;;;5032388;28;20037;-74
2020/12/10 05:31:18;;;;;;;15.85;4.90;;;3.00;94.20;;;;;;5031982;28;20032;-74
2020/12/10 05:33:56;;;;;;;19.55;4.85;;;3.00;94.20;;;;;;5032113;28;20445;-74
2020/12/10 05:36:22;;;;;;;13.57;5.82;;;3.00;94.20;;;;;;5031967;28;20021;-74
2020/12/10 05:39:08;;;;;;;17.10;5.40;;;3.00;94.30;;;;;;5030858;28;20470;-83
2020/12/10 05:41:39;;;;;;;14.38;4.13;;;3.00;94.20;;;;;;5032294;28;20036;-75
2020/12/10 05:44:14;;;;;;;17.75;5.30;;;3.00;94.20;;;;;;5034393;28;20033;-74
2020/12/10 05:46:40;;;;;;;10.25;4.70;;;3.00;94.20;;;;;;5036269;28;20104;-74
2020/12/10 05:49:07;;;;;;;17.75;4.63;;;2.90;94.20;;;;;;5035806;28;20079;-74
2020/12/10 05:51:44;;;;;;;14.82;5.07;;;3.00;94.30;;;;;;5035958;28;20025;-74
2020/12/10 05:54:12;;;;;;;16.80;5.20;;;3.00;94.20;;;;;;5035895;28;20025;-74
2020/12/10 05:56:57;;;;;;;16.67;5.15;;;2.90;94.20;;;;;;5035857;28;20400;-74
2020/12/10 05:59:24;;;;;;;14.77;4.85;;;2.90;94.20;;;;;;5036001;28;20029;-74
2020/12/10 06:01:50;;;;;;;17.38;5.45;;;2.90;94.20;;;;;;5034115;28;20445;-79
2020/12/10 06:04:16;;;;;;;14.63;5.38;;;2.80;94.20;;;;;;5034629;28;20492;-74
2020/12/10 06:06:42;;;;;;;19.80;6.22;;;2.80;94.20;;;;;;5034402;28;20050;-75
2020/12/10 06:09:08;;;;;;;13.15;4.95;;;2.80;94.20;;;;;;5034343;28;20013;-75
2020/12/10 06:11:34;;;;;;;18.45;5.60;;;2.80;94.20;;;;;;5035627;28;20481;-74
2020/12/10 06:14:07;;;;;;;14.65;4.78;;;2.80;94.20;;;;;;5035309;28;20474;-75
2020/12/10 06:16:34;;;;;;;20.02;5.75;;;2.80;94.20;;;;;;5034578;28;20034;-75
2020/12/10 06:19:10;;;;;;;21.13;5.85;;;2.80;94.20;;;;;;5034089;28;20026;-74
2020/12/10 06:21:44;;;;;;;20.50;5.20;;;2.80;94.20;;;;;;5035654;28;20026;-74
2020/12/10 06:24:25;;;;;;;13.93;4.25;;;2.80;94.20;;;;;;5033867;28;20048;-75
2020/12/10 06:26:55;;;;;;;17.75;6.05;;;2.80;94.20;;;;;;5033735;28;20109;-86
2020/12/10 06:29:29;;;;;;;15.65;5.35;;;2.80;94.20;;;;;;5035283;28;20461;-74
2020/12/10 06:32:02;;;;;;;14.68;4.50;;;2.80;94.20;;;;;;5035039;28;20112;-75
2020/12/10 06:34:37;;;;;;;17.13;5.50;;;2.80;94.20;;;;;;5035581;28;20097;-74
2020/12/10 06:37:13;;;;;;;20.23;6.13;;;2.80;94.20;;;;;;5034833;28;20099;-73
2020/12/10 06:39:38;;;;;;;19.88;6.13;;;2.80;94.20;;;;;;5035490;28;20013;-74
2020/12/10 06:42:04;;;;;;;24.50;5.68;;;2.80;94.10;;;;;;5033422;28;20036;-74
2020/12/10 06:44:37;;;;;;;21.38;4.88;;;2.80;94.10;;;;;;5035117;28;20365;-74
2020/12/10 06:47:06;;;;;;;22.58;4.78;;;2.80;94.10;;;;;;5033522;28;20373;-75
2020/12/10 06:49:34;;;;;;;15.98;5.00;;;2.80;94.10;;;;;;5034046;28;20507;-75
2020/12/10 06:52:18;;;;;;;15.98;5.75;;;2.80;94.10;;;;;;5035048;28;20030;-75
2020/12/10 06:55:19;;;;;;;14.07;5.68;;;2.80;94.10;;;;;;5034697;28;20021;-74
2020/12/10 06:58:03;;;;;;;14.52;4.55;;;2.80;94.10;;;;;;5012932;28;20462;-75
2020/12/10 07:00:45;;;;;;;14.73;5.10;;;2.80;94.20;;;;;;5032931;28;20041;-74
2020/12/10 07:03:22;;;;;;;10.82;4.65;;;2.80;94.10;;;;;;5032999;28;20025;-74
2020/12/10 07:05:49;;;;;;;21.45;5.97;;;2.80;94.20;;;;;;5033522;28;20133;-75
2020/12/10 07:08:16;;;;;;;18.23;4.55;;;2.80;94.20;;;;;;5034786;28;20440;-76
2020/12/10 07:10:44;;;;;;;18.95;5.57;;;2.80;94.20;;;;;;5033755;28;20026;-75
2020/12/10 07:13:11;;;;;;;16.35;5.15;;;2.80;94.20;;;;;;5034340;28;20100;-75
2020/12/10 07:15:37;;;;;;;23.30;5.15;;;2.70;94.10;;;;;;5033615;28;20040;-74
2020/12/10 07:18:06;;;;;;;17.08;5.60;;;2.80;94.20;;;;;;5034466;28;20021;-75
2020/12/10 07:20:33;;;;;;;14.45;4.47;;;2.80;94.20;;;;;;5035075;28;20393;-75
2020/12/10 07:23:00;;;;;;;13.35;4.72;;;2.70;94.20;;;;;;5033530;28;20029;-76
2020/12/10 07:25:26;;;;;;;11.07;4.85;;;2.80;94.20;;;;;;5033353;28;20079;-75
2020/12/10 07:27:52;;;;;;;16.05;5.40;;;2.70;94.20;;;;;;5033437;28;20116;-75
2020/12/10 07:30:19;;;;;;;14.88;5.38;;;2.80;94.20;;;;;;5033978;28;20383;-75
2020/12/10 07:32:45;;;;;;;17.98;6.50;;;2.80;94.20;;;;;;5033103;28;20033;-76
2020/12/10 07:35:13;;;;;;;14.75;4.47;;;2.80;94.20;;;;;;5032491;28;20041;-75
2020/12/10 07:37:40;;;;;;;13.70;4.72;;;2.80;94.20;;;;;;5034245;28;20030;-75
2020/12/10 07:40:17;;;;;;;16.73;5.88;;;2.80;94.20;;;;;;5033732;28;20022;-75
2020/12/10 07:42:43;;;;;;;17.02;5.47;;;2.80;94.20;;;;;;5034456;28;20072;-75
2020/12/10 07:45:19;;;;;;;16.70;6.18;;;2.80;94.20;;;;;;5032416;28;20053;-75
2020/12/10 07:48:02;;;;;;;18.48;5.60;;;2.80;94.20;;;;;;5034451;28;20025;-75
2020/12/10 07:50:29;;;;;;;20.63;5.88;;;2.80;94.20;;;;;;5033905;28;20036;-75
2020/12/10 07:52:56;;;;;;;13.38;4.35;;;2.70;94.20;;;;;;5034115;28;20068;-75
2020/12/10 07:55:27;;;;;;;14.35;5.25;;;2.70;94.20;;;;;;5033954;28;20030;-74
2020/12/10 07:58:11;;;;;;;17.38;4.75;;;2.70;94.20;;;;;;5033839;28;20049;-75
2020/12/10 08:00:39;;;;;;;16.83;4.55;;;2.80;94.20;;;;;;5034277;28;20120;-75
2020/12/10 08:03:31;;;;;;;14.35;5.43;;;2.70;94.20;;;;;;5032099;28;20032;-75
2020/12/10 08:06:01;;;;;;;;;;;2.80;94.20;;;;;;5031095;28;20049;-86
2020/12/10 08:08:37;;;;;;;14.50;4.63;;;2.70;94.20;;;;;;5034004;28;19905;-75
2020/12/10 08:11:15;;;;;;;15.57;5.32;;;2.70;94.20;;;;;;5031965;28;20453;-75
2020/12/10 08:14:09;;;;;;;20.05;5.15;;;2.70;94.20;;;;;;5033856;28;20021;-75
2020/12/10 08:16:45;;;;;;;11.98;4.32;;;2.70;94.20;;;;;;5033543;28;20036;-75
2020/12/10 08:19:17;;;;;;;10.43;4.63;;;2.70;94.20;;;;;;5031993;28;20055;-75
2020/12/10 08:21:43;;;;;;;;;;;2.70;94.20;;;;;;5032596;28;20021;-75
2020/12/10 08:24:09;;;;;;;14.80;5.28;;;2.70;94.20;;;;;;5032786;28;20276;-75
2020/12/10 08:26:35;;;;;;;11.90;5.43;;;2.70;94.20;;;;;;5033373;28;20021;-75
2020/12/10 08:29:01;;;;;;;15.95;5.35;;;2.70;94.20;;;;;;5032558;28;20018;-75
2020/12/10 08:31:28;;;;;;;19.60;6.18;;;2.70;94.20;;;;;;5033091;28;20030;-75
2020/12/10 08:33:58;;;;;;;16.52;5.32;;;2.80;94.20;;;;;;5033192;28;20017;-75
2020/12/10 08:36:30;;;;;;;21.98;5.93;;;2.80;94.20;;;;;;5033237;28;20417;-75
2020/12/10 08:39:01;;;;;;;18.52;5.55;;;2.80;94.20;;;;;;5033300;28;20025;-74
2020/12/10 08:41:32;;;;;;;18.67;5.97;;;2.80;94.20;;;;;;5028947;28;20046;-75
2020/12/10 08:44:01;;;;;;;18.10;5.28;;;2.80;94.20;;;;;;5033190;28;20104;-75
2020/12/10 08:46:28;;;;;;;20.63;6.20;;;2.80;94.20;;;;;;5015740;28;20025;-75
2020/12/10 08:48:56;;;;;;;16.42;5.10;;;2.80;94.20;;;;;;5031687;28;20026;-75
2020/12/10 08:51:35;;;;;;;14.77;4.97;;;2.80;94.20;;;;;;5031738;28;20045;-75
2020/12/10 08:54:02;;;;;;;22.80;7.22;;;2.90;94.30;;;;;;5032623;28;20021;-75
2020/12/10 08:56:35;;;;;;;16.80;5.57;;;2.90;94.20;;;;;;5015011;28;20018;-75
2020/12/10 08:59:00;;;;;;;20.63;5.72;;;2.90;94.20;;;;;;5031285;28;20021;-77
2020/12/10 09:01:26;;;;;;;20.92;5.70;;;2.90;94.20;;;;;;5032462;28;20135;-75
2020/12/10 09:03:52;;;;;;;19.67;5.20;;;2.90;94.20;;;;;;5031390;28;20441;-75
2020/12/10 09:06:17;;;;;;;20.45;5.13;;;3.00;94.20;;;;;;5031733;28;20516;-75
2020/12/10 09:08:43;;;;;;;19.58;5.57;;;3.00;94.10;;;;;;5032581;28;20032;-75
2020/12/10 09:11:09;;;;;;;21.08;7.10;;;3.00;94.20;;;;;;4998152;28;20359;-75
2020/12/10 09:13:34;;;;;;;17.85;5.18;;;3.00;94.20;;;;;;5031214;28;20021;-75
2020/12/10 09:16:00;;;;;;;19.33;5.97;;;3.00;94.20;;;;;;5031214;28;20072;-75
2020/12/10 09:18:26;;;;;;;16.27;5.60;;;3.00;94.20;;;;;;5031328;28;20029;-75
2020/12/10 09:20:53;;;;;;;17.80;4.95;;;3.00;94.20;;;;;;5032433;28;20154;-75
2020/12/10 09:23:20;;;;;;;23.52;6.28;;;3.00;94.20;;;;;;5032085;28;20032;-75
2020/12/10 09:25:46;;;;;;;20.98;5.63;;;3.00;94.20;;;;;;5032428;28;20072;-74
2020/12/10 09:28:11;;;;;;;19.48;6.88;;;3.00;94.20;;;;;;5030630;28;20034;-75
2020/12/10 09:30:38;;;;;;;20.52;6.82;;;3.00;94.20;;;;;;5032596;28;20029;-75
2020/12/10 09:33:05;;;;;;;18.48;6.72;;;3.00;94.20;;;;;;5030602;28;20022;-75
2020/12/10 09:35:31;;;;;;;20.85;5.88;;;3.00;94.20;;;;;;5032364;28;20026;-75
2020/12/10 09:37:57;;;;;;;15.63;5.80;;;3.00;94.20;;;;;;5031138;28;20022;-74
2020/12/10 09:40:23;;;;;;;19.90;6.13;;;3.00;94.20;;;;;;5030504;28;20033;-74
2020/12/10 09:42:51;;;;;;;20.58;6.82;;;3.00;94.20;;;;;;5032203;28;20076;-74
2020/12/10 09:45:18;;;;;;;17.75;5.70;;;3.10;94.10;;;;;;5013976;28;20470;-74
2020/12/10 09:47:46;;;;;;;17.08;5.57;;;3.10;94.10;;;;;;5032275;28;20026;-74
2020/12/10 09:50:24;;;;;;;18.73;5.55;;;3.10;94.10;;;;;;5031638;28;20155;-74
2020/12/10 09:58:12;;;;;;;22.67;6.70;;;3.30;94.10;;;;;;5031801;28;20064;-74
2020/12/10 10:00:38;;;;;;;22.95;6.15;;;3.30;94.00;;;;;;5031802;28;20461;-74
2020/12/10 10:03:06;;;;;;;22.42;6.53;;;3.30;94.00;;;;;;5030658;28;20038;-85
2020/12/10 10:05:33;;;;;;;17.48;6.88;;;3.40;94.00;;;;;;5031867;28;20057;-74
2020/12/10 10:07:59;;;;;;;19.60;7.35;;;3.40;94.00;;;;;;5032177;28;20071;-75
2020/12/10 10:10:27;;;;;;;16.60;5.85;;;3.40;93.90;;;;;;5031495;28;20017;-75
2020/12/10 10:12:54;;;;;;;21.55;6.53;;;3.50;94.20;;;;;;5030748;28;20030;-75
2020/12/10 10:15:23;;;;;;;25.00;6.78;;;3.40;93.90;;;;;;5030165;28;20025;-75
2020/12/10 10:17:49;;;;;;;25.92;7.30;;;3.50;93.90;;;;;;5030434;28;20036;-74
2020/12/10 10:20:16;;;;;;;25.63;6.40;;;3.50;94.20;;;;;;5030828;28;20101;-74
2020/12/10 10:22:42;;;;;;;17.42;6.20;;;3.50;93.90;;;;;;5032125;28;20550;-74
2020/12/10 10:25:08;;;;;;;19.48;6.22;;;3.50;93.90;;;;;;5031346;28;20029;-74
2020/12/10 10:27:34;;;;;;;18.63;6.88;;;3.50;93.90;;;;;;5032046;28;20084;-75
2020/12/10 10:30:23;;;;;;;17.80;6.35;;;3.50;93.90;;;;;;5035069;28;20058;-74
2020/12/10 10:32:49;;;;;;;21.63;6.93;;;3.60;93.90;;;;;;5035396;28;20089;-75
2020/12/10 10:35:35;;;;;;;19.17;6.35;;;3.60;93.90;;;;;;5035402;28;20100;-76
2020/12/10 10:38:00;;;;;;;23.23;7.57;;;3.60;93.90;;;;;;5035847;28;20030;-75
2020/12/10 10:40:46;;;;;;;19.83;6.43;;;3.60;93.90;;;;;;5034961;28;20052;-75
2020/12/10 10:43:11;;;;;;;17.73;7.22;;;3.60;93.90;;;;;;5034287;28;20045;-75
2020/12/10 10:45:37;;;;;;;23.67;6.85;;;3.60;93.90;;;;;;5034967;28;20026;-78
2020/12/10 10:48:24;;;;;;;23.52;6.88;;;3.70;94.20;;;;;;5050376;28;20469;-75
2020/12/10 10:50:50;;;;;;;16.15;6.90;;;3.70;93.90;;;;;;5035224;28;20053;-73
2020/12/10 10:53:15;;;;;;;22.90;7.28;;;3.70;94.00;;;;;;5044802;28;20462;-74
2020/12/10 10:55:49;;;;;;;17.98;6.38;;;3.70;94.00;;;;;;5050679;28;20052;-74
2020/12/10 10:58:17;;;;;;;21.95;6.05;;;3.70;93.90;;;;;;5033090;28;20025;-74
2020/12/10 11:00:50;;;;;;;17.38;6.20;;;3.70;93.90;;;;;;5034749;28;20112;-74
2020/12/10 11:03:35;;;;;;;17.83;5.25;;;3.70;93.90;;;;;;5016401;28;20435;-74
2020/12/10 11:06:02;;;;;;;18.92;5.88;;;3.70;93.90;;;;;;5034414;28;20052;-74
2020/12/10 11:08:27;;;;;;;23.83;7.10;;;3.80;94.00;;;;;;5034457;28;20041;-74
2020/12/10 11:10:57;;;;;;;18.50;5.78;;;3.80;94.00;;;;;;5031569;28;20049;-75
2020/12/10 11:13:22;;;;;;;25.60;6.35;;;3.80;93.90;;;;;;5033007;28;20378;-75
2020/12/10 11:15:48;;;;;;;20.05;6.03;;;3.90;94.00;;;;;;5033141;28;20462;-75
2020/12/10 11:18:14;;;;;;;23.35;8.05;;;3.90;93.90;;;;;;5033900;28;20022;-75
2020/12/10 11:20:39;;;;;;;17.23;6.45;;;3.90;93.90;;;;;;5032780;28;20030;-74
2020/12/10 11:23:05;;;;;;;23.35;7.00;;;4.00;93.90;;;;;;5034295;28;20040;-74
2020/12/10 11:25:32;;;;;;;21.15;8.13;;;4.00;93.90;;;;;;5016334;28;20540;-74
2020/12/10 11:27:58;;;;;;;20.95;6.53;;;4.00;93.90;;;;;;5034621;28;20080;-75
2020/12/10 11:30:24;;;;;;;26.15;6.43;;;4.10;93.90;;;;;;5034207;28;20018;-74
2020/12/10 11:33:00;;;;;;;19.67;6.90;;;4.10;93.80;;;;;;5034343;28;20032;-74
2020/12/10 11:35:26;;;;;;;19.27;6.28;;;4.20;93.80;;;;;;5032616;28;20492;-74
2020/12/10 11:37:55;;;;;;;23.33;6.72;;;4.10;93.80;;;;;;5034560;28;20029;-74
2020/12/10 11:40:35;;;;;;;25.95;6.90;;;4.20;93.80;;;;;;5033039;28;20437;-75
2020/12/10 11:43:21;;;;;;;16.58;6.07;;;4.20;93.80;;;;;;5034707;28;20021;-74
2020/12/10 11:45:48;;;;;;;25.30;7.45;;;4.30;93.80;;;;;;5034894;28;20026;-74
2020/12/10 11:48:13;;;;;;;22.00;7.63;;;4.30;93.80;;;;;;5016825;28;20048;-74
2020/12/10 11:50:39;;;;;;;22.58;6.85;;;4.30;93.80;;;;;;5034680;28;20030;-74
2020/12/10 11:53:05;;;;;;;19.50;5.95;;;4.30;93.70;;;;;;5033115;28;20036;-74
2020/12/10 11:55:31;;;;;;;23.85;6.75;;;4.40;93.70;;;;;;5033001;28;20045;-74
2020/12/10 11:58:20;;;;;;;18.63;6.60;;;4.40;93.70;;;;;;5033166;28;20060;-74
2020/12/10 12:00:46;;;;;;;18.27;6.18;;;4.40;93.60;;;;;;5034123;28;20042;-74
2020/12/10 12:03:13;;;;;;;23.27;7.00;;;4.40;93.70;;;;;;5034001;28;20096;-75
2020/12/10 12:05:39;;;;;;;16.55;5.82;;;4.40;93.70;;;;;;5015887;28;20041;-75
2020/12/10 12:08:05;;;;;;;18.55;6.10;;;4.40;93.60;;;;;;5034275;28;20358;-74
2020/12/10 12:10:30;;;;;;;21.70;6.95;;;4.50;93.60;;;;;;5033544;28;20527;-74
2020/12/10 12:13:02;;;;;;;20.05;6.57;;;4.50;93.60;;;;;;5033396;28;20029;-74
2020/12/10 12:15:28;;;;;;;18.73;5.88;;;4.60;93.60;;;;;;5033297;28;20014;-75
2020/12/10 12:17:54;;;;;;;22.02;5.78;;;4.60;93.60;;;;;;5032586;28;20079;-76
2020/12/10 12:20:24;;;;;;;15.52;5.45;;;4.60;93.60;;;;;;5033067;28;20021;-76
2020/12/10 12:23:10;;;;;;;16.98;5.75;;;4.60;93.60;;;;;;5032354;28;20084;-76
2020/12/10 12:25:36;;;;;;;18.70;5.45;;;4.70;93.50;;;;;;5031882;28;20029;-74
2020/12/10 12:28:06;;;;;;;17.85;6.32;;;4.70;93.60;;;;;;5032041;28;20036;-74
2020/12/10 12:30:34;;;;;;;22.33;6.70;;;4.70;93.50;;;;;;5015791;28;20049;-75
2020/12/10 12:33:00;;;;;;;18.80;5.90;;;4.70;93.50;;;;;;5033236;28;20062;-74
2020/12/10 12:35:26;;;;;;;15.50;5.47;;;4.70;93.50;;;;;;5032928;28;20243;-75
2020/12/10 12:37:51;;;;;;;20.50;6.07;;;4.70;93.50;;;;;;5031791;28;20053;-74
2020/12/10 12:40:23;;;;;;;21.83;6.65;;;4.70;93.50;;;;;;5032289;28;20022;-75
2020/12/10 12:42:48;;;;;;;21.35;6.95;;;4.70;93.50;;;;;;5033116;28;20025;-74
2020/12/10 12:45:34;;;;;;;25.63;7.72;;;4.70;93.50;;;;;;5029535;28;20389;-75
2020/12/10 12:48:00;;;;;;;26.10;6.30;;;4.70;93.50;;;;;;5031679;28;20036;-74
2020/12/10 12:50:26;;;;;;;15.50;6.57;;;4.70;93.50;;;;;;5032161;28;20026;-74
2020/12/10 12:52:53;;;;;;;26.52;7.15;;;4.70;93.60;;;;;;5032686;28;20381;-74
2020/12/10 12:55:18;;;;;;;22.75;7.10;;;4.70;93.60;;;;;;5032503;28;20025;-75
2020/12/10 12:57:44;;;;;;;14.68;5.72;;;4.70;93.60;;;;;;5031939;28;20079;-76
2020/12/10 13:00:10;;;;;;;19.95;7.15;;;4.70;93.60;;;;;;5032785;28;20502;-75